This is the latest recevied weather packets stored in our database for station/object N9ALD. If no packets are shown the sender has not sent any weather packets the latest 1 day(s).
| Time | Temp. | Humidity | Pressure | Rain* | Wind** | Luminosity | Snow |
|---|---|---|---|---|---|---|---|
| 1778093769 | 14.44° C | 61% | 1010.8 hPa | 0 mm | - | 369 W/m² | - |
| 1778093465 | 13.89° C | 62% | 1010.9 hPa | 0 mm | - | 339 W/m² | - |
| 1778092860 | 13.89° C | 61% | 1010.8 hPa | 0 mm | - | 356 W/m² | - |
| 1778092556 | 13.89° C | 62% | 1011 hPa | 0 mm | - | 442 W/m² | - |
| 1778091950 | 13.33° C | 60% | 1010.9 hPa | 0 mm | - | 391 W/m² | - |
| 1778091647 | 12.78° C | 63% | 1010.8 hPa | 0 mm | - | 357 W/m² | - |
| 1778091345 | 12.78° C | 62% | 1010.9 hPa | 0 mm | - | 292 W/m² | - |
| 1778090738 | 12.78° C | 67% | 1010.8 hPa | 0 mm | - | 229 W/m² | - |
| 1778089222 | 12.78° C | 62% | 1011 hPa | 0 mm | - | 151 W/m² | - |
| 1778088920 | 12.78° C | 63% | 1011.1 hPa | 0 mm | - | 127 W/m² | - |
| 1778088010 | 12.78° C | 62% | 1011.2 hPa | 0 mm | - | 257 W/m² | - |
| 1778087708 | 12.78° C | 62% | 1011 hPa | 0 mm | - | 233 W/m² | - |
| 1778086800 | 12.78° C | 62% | 1010.9 hPa | 0 mm | - | 334 W/m² | - |
| 1778086194 | 12.78° C | 65% | 1011 hPa | 0 mm | - | 239 W/m² | - |
| 1778085891 | 12.78° C | 64% | 1011.1 hPa | 0 mm | - | 194 W/m² | - |
| 1778084374 | 13.89° C | 60% | 1010.9 hPa | 0 mm | - | 221 W/m² | - |
| 1778084072 | 13.89° C | 59% | 1010.9 hPa | 0 mm | - | 240 W/m² | - |
| 1778083769 | 13.89° C | 60% | 1010.8 hPa | 0 mm | - | 304 W/m² | - |
| 1778083164 | 13.89° C | 63% | 1010.8 hPa | 0 mm | - | 380 W/m² | - |
| 1778082861 | 13.33° C | 63% | 1010.4 hPa | 0 mm | - | 378 W/m² | - |
| 1778081440 | 12.22° C | 67% | 1010.7 hPa | 0 mm | - | 217 W/m² | - |
| 1778081137 | 12.22° C | 66% | 1010.8 hPa | 0 mm | - | 272 W/m² | - |
| 1778080835 | 11.67° C | 70% | 1010.6 hPa | 0 mm | - | 290 W/m² | - |
| 1778079926 | 11.67° C | 69% | 1010.4 hPa | 0 mm | - | 266 W/m² | - |
| 1778079623 | 11.11° C | 72% | 1010.5 hPa | 0 mm | - | 257 W/m² | - |
* Rain latest hour (hover to see other rain measurements)
** Current wind speed in m/s (hover to see current wind gust speed)